Strona główna
METAR-TAF:

METAR-TAF

Lotnisko :

Port lotniczy Marka

Amman, Jordania

Szerokość geograficzna: 31-59N, Długość geograficzna: 035-59E, wysokość: 767 m

Aktualna obserwacja pogody

Raport powstał 34 minut temu, godzina 18:00 UTC
Wiatr 11 kt od zachodnio-południowy zachód
Temperatura 30°C
Wilgotność 33%
Ciśnienie 1009 hPa
Widzialność: 4000 m
pył

METAR: OJAM 171800Z 25011KT 4000 DU NSC 30/12 Q1009 NOSIG

czas: 21:34 (18:34 UTC)

Prognoza

Raport powstał 1 godzina i 48 minut temu, godzina 16:46 UTC
Prognoza ważna od 17 godzina 18 UTC do 18 godzina 24 UTC
Wiatr 12 kt od zachód
Widzialność: 2500 m
pył
Przejściowo
od 17 godzina 20 UTC do 18 godzina 08 UTC
Wiatr 18 kt od zachód
Widzialność: 3000 m
zawieja pyłowa

TAF: OJAM 171646Z 1718/1824 26012KT 2500 DU NSC TEMPO 1720/1808 28018KT 3000 BLDU

Obserwacja i prognoza pogody dla ponad 4000 lotnisk (raport METAR i TAF).

Dostępne stacje oznaczono żółtymi i czerwonymi punktami na mapie.

Najedź kursorem aby zobaczyć nazwę stacji.

Kliknij aby zobaczyć obserwacje i prognozy pogody.

Aby zmienić mapę: kliknij na zielony przycisk z czarnym krzyżykiem, aby powiększyć; na zielony przycisk z myślnikiem, aby pomniejszyć; na zielone strzałki, aby przejść do map sąsiednich.


METAR-TAF: